Carlton, Washington
Current Conditions -  °F | °C
As of 4:53 AM on Thursday 23 Oct 2014 (Local Time) from KOMK Reporting Station
Clear Clear  
Wind Chill: 53°   Ceiling: Unl
Heat Index: 53°   Visibility: 10mi
Dew Point: 42°   Wind: 12mph
Humidity: 66%   Direction: 170°S
Pressure: 29.68"   Gusts: NA
Location:  48.25°N, 120.12°W
Report Text: KOMK 231153Z AUTO 17010KT 10SM CLR 12/06 A2968 RMK AO2 SLP052 60000 70084 T01170056 10128 20106 50009
Loading
Personal Weather Stations






























Interactive Weather Map
Tropical Storm Tracking
New forecast layout! Learn more

10-Day Weather Forecast

Advertisements
Track Severe Weather on mobile